sensor_id;sensor_type;location;lat;lon;timestamp;pressure;altitude;pressure_sealevel;temperature;humidity
36242;BME280;22283;42.748;12.732;2023-08-24T00:02:02;98075.66;;;23.95;70.54
36242;BME280;22283;42.748;12.732;2023-08-24T00:07:02;98079.75;;;23.85;70.95
36242;BME280;22283;42.748;12.732;2023-08-24T00:12:04;98082.66;;;23.83;70.53
36242;BME280;22283;42.748;12.732;2023-08-24T00:17:05;98078.66;;;23.79;71.48
36242;BME280;22283;42.748;12.732;2023-08-24T00:22:05;98082.63;;;23.76;72.00
36242;BME280;22283;42.748;12.732;2023-08-24T00:27:06;98080.34;;;23.80;72.18
36242;BME280;22283;42.748;12.732;2023-08-24T00:32:06;98071.81;;;23.76;72.37
36242;BME280;22283;42.748;12.732;2023-08-24T00:37:08;98075.63;;;23.61;73.19
36242;BME280;22283;42.748;12.732;2023-08-24T00:42:09;98070.38;;;23.52;74.17
36242;BME280;22283;42.748;12.732;2023-08-24T00:47:16;98056.59;;;23.47;75.10
36242;BME280;22283;42.748;12.732;2023-08-24T00:52:18;98055.22;;;23.58;75.15
36242;BME280;22283;42.748;12.732;2023-08-24T00:57:18;98063.88;;;23.75;74.11
36242;BME280;22283;42.748;12.732;2023-08-24T01:02:19;98064.59;;;23.62;75.43
36242;BME280;22283;42.748;12.732;2023-08-24T01:07:20;98073.22;;;23.44;76.18
36242;BME280;22283;42.748;12.732;2023-08-24T01:12:42;98070.78;;;23.06;78.15
36242;BME280;22283;42.748;12.732;2023-08-24T01:17:49;98075.75;;;22.88;79.79
36242;BME280;22283;42.748;12.732;2023-08-24T01:28:05;98066.66;;;22.89;81.16
36242;BME280;22283;42.748;12.732;2023-08-24T01:33:07;98062.81;;;22.98;80.48
36242;BME280;22283;42.748;12.732;2023-08-24T01:38:12;98061.63;;;22.86;81.33
36242;BME280;22283;42.748;12.732;2023-08-24T01:43:14;98065.88;;;22.74;82.11
36242;BME280;22283;42.748;12.732;2023-08-24T01:48:15;98078.81;;;22.64;82.46
36242;BME280;22283;42.748;12.732;2023-08-24T01:53:16;98082.19;;;22.51;83.86
36242;BME280;22283;42.748;12.732;2023-08-24T01:58:17;98073.38;;;22.42;84.26
36242;BME280;22283;42.748;12.732;2023-08-24T02:03:18;98082.22;;;22.36;84.99
36242;BME280;22283;42.748;12.732;2023-08-24T02:08:19;98086.06;;;22.27;85.15
36242;BME280;22283;42.748;12.732;2023-08-24T02:13:19;98084.84;;;22.15;85.88
36242;BME280;22283;42.748;12.732;2023-08-24T02:18:20;98083.25;;;21.91;86.63
36242;BME280;22283;42.748;12.732;2023-08-24T02:23:21;98085.72;;;21.77;88.65
36242;BME280;22283;42.748;12.732;2023-08-24T02:28:21;98100.09;;;21.70;89.30
36242;BME280;22283;42.748;12.732;2023-08-24T02:33:22;98098.44;;;21.69;90.35
36242;BME280;22283;42.748;12.732;2023-08-24T02:38:23;98099.66;;;21.66;90.04
36242;BME280;22283;42.748;12.732;2023-08-24T02:43:25;98100.56;;;21.58;90.87
36242;BME280;22283;42.748;12.732;2023-08-24T02:48:25;98100.03;;;21.63;90.28
36242;BME280;22283;42.748;12.732;2023-08-24T02:53:26;98094.06;;;21.53;90.95
36242;BME280;22283;42.748;12.732;2023-08-24T02:58:29;98102.78;;;21.32;91.64
36242;BME280;22283;42.748;12.732;2023-08-24T03:03:29;98096.59;;;21.08;93.94
36242;BME280;22283;42.748;12.732;2023-08-24T03:08:31;98103.09;;;20.91;95.48
36242;BME280;22283;42.748;12.732;2023-08-24T03:13:37;98105.91;;;20.75;96.51
36242;BME280;22283;42.748;12.732;2023-08-24T03:18:41;98107.28;;;20.62;98.25
36242;BME280;22283;42.748;12.732;2023-08-24T03:23:42;98105.97;;;20.58;99.21
36242;BME280;22283;42.748;12.732;2023-08-24T03:28:43;98106.84;;;20.59;98.90
36242;BME280;22283;42.748;12.732;2023-08-24T03:33:43;98103.28;;;20.58;98.85
36242;BME280;22283;42.748;12.732;2023-08-24T03:38:45;98105.31;;;20.56;98.50
36242;BME280;22283;42.748;12.732;2023-08-24T03:43:46;98100.25;;;20.61;99.21
36242;BME280;22283;42.748;12.732;2023-08-24T03:48:47;98103.22;;;20.67;98.91
36242;BME280;22283;42.748;12.732;2023-08-24T03:53:48;98104.97;;;20.59;98.77
36242;BME280;22283;42.748;12.732;2023-08-24T03:58:48;98097.59;;;20.53;99.33
36242;BME280;22283;42.748;12.732;2023-08-24T04:03:51;98109.03;;;20.55;99.68
36242;BME280;22283;42.748;12.732;2023-08-24T04:08:51;98118.47;;;20.51;99.54
36242;BME280;22283;42.748;12.732;2023-08-24T04:13:52;98113.44;;;20.40;100.00
36242;BME280;22283;42.748;12.732;2023-08-24T04:18:53;98109.47;;;20.28;100.00
36242;BME280;22283;42.748;12.732;2023-08-24T04:23:53;98109.75;;;20.33;100.00
36242;BME280;22283;42.748;12.732;2023-08-24T04:28:54;98108.38;;;20.45;100.00
36242;BME280;22283;42.748;12.732;2023-08-24T04:33:55;98106.19;;;20.49;100.00
36242;BME280;22283;42.748;12.732;2023-08-24T04:38:55;98123.66;;;20.53;100.00
36242;BME280;22283;42.748;12.732;2023-08-24T04:43:56;98128.34;;;20.59;100.00
36242;BME280;22283;42.748;12.732;2023-08-24T04:48:57;98135.16;;;20.70;99.87
36242;BME280;22283;42.748;12.732;2023-08-24T04:53:57;98136.97;;;20.77;99.94
36242;BME280;22283;42.748;12.732;2023-08-24T04:58:58;98155.41;;;21.11;98.54
36242;BME280;22283;42.748;12.732;2023-08-24T05:04:00;98144.78;;;22.46;87.04
36242;BME280;22283;42.748;12.732;2023-08-24T05:09:01;98151.06;;;23.41;78.73
36242;BME280;22283;42.748;12.732;2023-08-24T05:14:02;98132.28;;;24.03;74.32
36242;BME280;22283;42.748;12.732;2023-08-24T05:19:02;98140.53;;;24.65;71.13
36242;BME280;22283;42.748;12.732;2023-08-24T05:24:03;98126.19;;;25.39;67.84
36242;BME280;22283;42.748;12.732;2023-08-24T05:29:05;98135.56;;;25.63;67.60
36242;BME280;22283;42.748;12.732;2023-08-24T05:34:05;98145.56;;;25.56;68.51
36242;BME280;22283;42.748;12.732;2023-08-24T05:39:06;98146.41;;;25.63;68.47
36242;BME280;22283;42.748;12.732;2023-08-24T05:44:07;98151.84;;;25.89;67.29
36242;BME280;22283;42.748;12.732;2023-08-24T05:49:07;98164.56;;;25.82;66.94
36242;BME280;22283;42.748;12.732;2023-08-24T05:54:08;98155.34;;;26.23;65.57
36242;BME280;22283;42.748;12.732;2023-08-24T05:59:09;98150.75;;;26.17;66.06
36242;BME280;22283;42.748;12.732;2023-08-24T06:04:09;98155.75;;;26.46;64.04
36242;BME280;22283;42.748;12.732;2023-08-24T06:09:10;98156.84;;;26.84;62.21
36242;BME280;22283;42.748;12.732;2023-08-24T06:14:13;98159.78;;;26.82;61.24
36242;BME280;22283;42.748;12.732;2023-08-24T06:19:15;98156.31;;;27.07;60.51
36242;BME280;22283;42.748;12.732;2023-08-24T06:24:16;98160.41;;;27.29;58.49
36242;BME280;22283;42.748;12.732;2023-08-24T06:29:16;98154.44;;;27.45;58.66
36242;BME280;22283;42.748;12.732;2023-08-24T06:34:17;98136.63;;;28.25;54.96
36242;BME280;22283;42.748;12.732;2023-08-24T06:39:18;98134.31;;;28.47;53.00
36242;BME280;22283;42.748;12.732;2023-08-24T06:44:19;98135.53;;;28.69;53.14
36242;BME280;22283;42.748;12.732;2023-08-24T06:49:20;98133.56;;;28.76;54.01
36242;BME280;22283;42.748;12.732;2023-08-24T06:54:21;98147.34;;;28.63;55.07
36242;BME280;22283;42.748;12.732;2023-08-24T06:59:23;98144.13;;;28.84;53.66
36242;BME280;22283;42.748;12.732;2023-08-24T07:04:25;98156.59;;;28.92;53.62
36242;BME280;22283;42.748;12.732;2023-08-24T07:09:26;98149.28;;;28.92;53.66
36242;BME280;22283;42.748;12.732;2023-08-24T07:14:31;98150.34;;;28.91;52.95
36242;BME280;22283;42.748;12.732;2023-08-24T07:19:35;98145.72;;;28.74;54.25
36242;BME280;22283;42.748;12.732;2023-08-24T07:24:35;98160.63;;;28.89;54.53
36242;BME280;22283;42.748;12.732;2023-08-24T07:29:36;98150.72;;;29.25;53.22
36242;BME280;22283;42.748;12.732;2023-08-24T07:34:37;98156.41;;;28.75;54.36
36242;BME280;22283;42.748;12.732;2023-08-24T07:39:38;98154.34;;;28.71;54.77
36242;BME280;22283;42.748;12.732;2023-08-24T07:44:39;98155.09;;;28.96;54.32
36242;BME280;22283;42.748;12.732;2023-08-24T07:49:39;98153.91;;;29.22;52.58
36242;BME280;22283;42.748;12.732;2023-08-24T07:54:44;98152.59;;;29.55;52.02
36242;BME280;22283;42.748;12.732;2023-08-24T07:59:46;98153.72;;;29.65;51.59
36242;BME280;22283;42.748;12.732;2023-08-24T08:04:47;98144.63;;;29.83;50.48
36242;BME280;22283;42.748;12.732;2023-08-24T08:09:47;98141.78;;;30.02;50.85
36242;BME280;22283;42.748;12.732;2023-08-24T08:14:48;98136.09;;;30.15;49.38
36242;BME280;22283;42.748;12.732;2023-08-24T08:19:49;98144.75;;;30.00;49.83
36242;BME280;22283;42.748;12.732;2023-08-24T08:24:54;98141.47;;;30.22;49.84
36242;BME280;22283;42.748;12.732;2023-08-24T08:29:56;98145.00;;;30.46;48.80
36242;BME280;22283;42.748;12.732;2023-08-24T08:34:57;98136.31;;;30.49;49.44
36242;BME280;22283;42.748;12.732;2023-08-24T08:39:59;98151.25;;;30.81;48.11
36242;BME280;22283;42.748;12.732;2023-08-24T08:45:00;98143.06;;;31.10;46.76
36242;BME280;22283;42.748;12.732;2023-08-24T08:50:04;98146.34;;;31.12;47.00
36242;BME280;22283;42.748;12.732;2023-08-24T08:55:05;98151.66;;;31.02;46.71
36242;BME280;22283;42.748;12.732;2023-08-24T09:00:11;98146.50;;;30.77;46.20
36242;BME280;22283;42.748;12.732;2023-08-24T09:05:15;98155.47;;;31.01;47.08
36242;BME280;22283;42.748;12.732;2023-08-24T09:10:16;98151.53;;;31.25;45.74
36242;BME280;22283;42.748;12.732;2023-08-24T09:15:26;98150.72;;;31.53;45.74
36242;BME280;22283;42.748;12.732;2023-08-24T09:20:28;98143.13;;;31.44;46.35
36242;BME280;22283;42.748;12.732;2023-08-24T09:25:30;98138.28;;;31.79;46.31
36242;BME280;22283;42.748;12.732;2023-08-24T09:30:31;98144.84;;;31.78;45.41
36242;BME280;22283;42.748;12.732;2023-08-24T09:35:36;98127.63;;;31.95;45.77
36242;BME280;22283;42.748;12.732;2023-08-24T09:40:37;98126.84;;;31.82;45.63
36242;BME280;22283;42.748;12.732;2023-08-24T09:45:37;98118.66;;;31.99;45.52
36242;BME280;22283;42.748;12.732;2023-08-24T09:50:39;98122.31;;;32.05;45.10
36242;BME280;22283;42.748;12.732;2023-08-24T09:55:41;98111.81;;;32.36;43.30
36242;BME280;22283;42.748;12.732;2023-08-24T10:00:45;98101.19;;;32.39;43.25
36242;BME280;22283;42.748;12.732;2023-08-24T10:05:54;98092.03;;;32.72;43.89
36242;BME280;22283;42.748;12.732;2023-08-24T10:10:58;98097.44;;;32.67;43.05
36242;BME280;22283;42.748;12.732;2023-08-24T10:15:59;98102.78;;;33.01;41.80
36242;BME280;22283;42.748;12.732;2023-08-24T10:21:01;98090.31;;;33.15;40.80
36242;BME280;22283;42.748;12.732;2023-08-24T10:26:06;98081.78;;;33.39;39.31
36242;BME280;22283;42.748;12.732;2023-08-24T10:31:08;98080.91;;;33.65;38.35
36242;BME280;22283;42.748;12.732;2023-08-24T10:36:09;98076.59;;;33.74;37.23
36242;BME280;22283;42.748;12.732;2023-08-24T10:41:10;98070.97;;;33.96;37.65
36242;BME280;22283;42.748;12.732;2023-08-24T10:46:15;98062.34;;;33.77;37.52
36242;BME280;22283;42.748;12.732;2023-08-24T10:51:18;98052.16;;;34.10;37.03
36242;BME280;22283;42.748;12.732;2023-08-24T10:56:30;98043.91;;;34.10;37.25
36242;BME280;22283;42.748;12.732;2023-08-24T11:01:32;98044.94;;;34.52;35.57
36242;BME280;22283;42.748;12.732;2023-08-24T11:06:32;98038.69;;;34.66;35.59
36242;BME280;22283;42.748;12.732;2023-08-24T11:11:33;98039.25;;;34.73;35.89
36242;BME280;22283;42.748;12.732;2023-08-24T11:16:47;98027.16;;;34.74;36.12
36242;BME280;22283;42.748;12.732;2023-08-24T11:21:48;98028.56;;;34.92;35.12
36242;BME280;22283;42.748;12.732;2023-08-24T11:26:49;98024.44;;;34.95;34.64
36242;BME280;22283;42.748;12.732;2023-08-24T11:31:51;98028.56;;;34.92;34.22
36242;BME280;22283;42.748;12.732;2023-08-24T11:36:51;98024.75;;;35.04;33.78
36242;BME280;22283;42.748;12.732;2023-08-24T11:42:06;98011.59;;;35.06;34.12
36242;BME280;22283;42.748;12.732;2023-08-24T11:47:10;98012.41;;;35.06;34.11
36242;BME280;22283;42.748;12.732;2023-08-24T11:52:10;98009.38;;;35.43;34.21
36242;BME280;22283;42.748;12.732;2023-08-24T11:57:11;98015.44;;;35.66;33.21
36242;BME280;22283;42.748;12.732;2023-08-24T12:02:12;98014.59;;;35.76;32.31
36242;BME280;22283;42.748;12.732;2023-08-24T12:07:13;97996.38;;;35.90;31.77
36242;BME280;22283;42.748;12.732;2023-08-24T12:12:15;97983.75;;;35.84;32.08
36242;BME280;22283;42.748;12.732;2023-08-24T12:17:16;97984.88;;;35.78;32.17
36242;BME280;22283;42.748;12.732;2023-08-24T12:22:19;97978.50;;;35.92;31.63
36242;BME280;22283;42.748;12.732;2023-08-24T12:27:24;97964.44;;;35.99;32.11
36242;BME280;22283;42.748;12.732;2023-08-24T12:32:42;97969.13;;;35.93;32.13
36242;BME280;22283;42.748;12.732;2023-08-24T12:37:44;97959.22;;;36.03;31.32
36242;BME280;22283;42.748;12.732;2023-08-24T12:42:45;97945.97;;;36.10;30.89
36242;BME280;22283;42.748;12.732;2023-08-24T12:47:45;97947.78;;;36.30;30.89
36242;BME280;22283;42.748;12.732;2023-08-24T12:52:46;97937.25;;;36.52;30.00
36242;BME280;22283;42.748;12.732;2023-08-24T12:57:47;97941.16;;;36.36;29.65
36242;BME280;22283;42.748;12.732;2023-08-24T13:02:48;97924.03;;;36.39;29.72
36242;BME280;22283;42.748;12.732;2023-08-24T13:07:49;97917.88;;;36.62;28.80
36242;BME280;22283;42.748;12.732;2023-08-24T13:12:51;97928.75;;;36.83;27.65
36242;BME280;22283;42.748;12.732;2023-08-24T13:17:51;97923.25;;;36.83;27.40
36242;BME280;22283;42.748;12.732;2023-08-24T13:22:52;97913.41;;;36.66;28.06
36242;BME280;22283;42.748;12.732;2023-08-24T13:27:53;97912.84;;;36.69;26.88
36242;BME280;22283;42.748;12.732;2023-08-24T13:32:56;97895.75;;;36.73;27.00
36242;BME280;22283;42.748;12.732;2023-08-24T13:37:57;97903.94;;;36.83;27.19
36242;BME280;22283;42.748;12.732;2023-08-24T13:42:58;97893.25;;;36.76;27.02
36242;BME280;22283;42.748;12.732;2023-08-24T13:47:58;97880.69;;;36.94;27.30
36242;BME280;22283;42.748;12.732;2023-08-24T13:52:59;97887.63;;;37.21;26.29
36242;BME280;22283;42.748;12.732;2023-08-24T13:58:00;97887.00;;;37.29;27.42
36242;BME280;22283;42.748;12.732;2023-08-24T14:03:00;97889.00;;;37.23;26.05
36242;BME280;22283;42.748;12.732;2023-08-24T14:08:01;97881.09;;;37.11;26.53
36242;BME280;22283;42.748;12.732;2023-08-24T14:13:03;97874.63;;;36.97;26.79
36242;BME280;22283;42.748;12.732;2023-08-24T14:18:04;97873.97;;;37.10;26.23
36242;BME280;22283;42.748;12.732;2023-08-24T14:23:04;97874.91;;;37.25;25.57
36242;BME280;22283;42.748;12.732;2023-08-24T14:28:05;97863.16;;;37.38;25.85
36242;BME280;22283;42.748;12.732;2023-08-24T14:33:06;97870.88;;;37.41;26.66
36242;BME280;22283;42.748;12.732;2023-08-24T14:38:06;97870.94;;;37.36;25.84
36242;BME280;22283;42.748;12.732;2023-08-24T14:43:07;97855.53;;;37.30;24.86
36242;BME280;22283;42.748;12.732;2023-08-24T14:48:08;97859.66;;;37.32;26.00
36242;BME280;22283;42.748;12.732;2023-08-24T14:53:08;97860.94;;;37.40;26.15
36242;BME280;22283;42.748;12.732;2023-08-24T14:58:09;97860.22;;;37.29;26.69
36242;BME280;22283;42.748;12.732;2023-08-24T15:03:10;97855.00;;;37.28;26.29
36242;BME280;22283;42.748;12.732;2023-08-24T15:08:11;97843.66;;;37.29;27.78
36242;BME280;22283;42.748;12.732;2023-08-24T15:13:12;97846.84;;;37.17;27.10
36242;BME280;22283;42.748;12.732;2023-08-24T15:18:13;97840.75;;;37.21;25.48
36242;BME280;22283;42.748;12.732;2023-08-24T15:23:28;97840.34;;;37.32;24.68
36242;BME280;22283;42.748;12.732;2023-08-24T15:29:06;97847.78;;;37.32;26.14
36242;BME280;22283;42.748;12.732;2023-08-24T15:33:58;97855.53;;;37.30;27.58
36242;BME280;22283;42.748;12.732;2023-08-24T15:38:59;97840.16;;;37.24;27.49
36242;BME280;22283;42.748;12.732;2023-08-24T15:44:01;97838.31;;;37.14;28.25
36242;BME280;22283;42.748;12.732;2023-08-24T15:49:02;97843.06;;;37.08;27.95
36242;BME280;22283;42.748;12.732;2023-08-24T15:54:02;97837.91;;;37.02;28.08
36242;BME280;22283;42.748;12.732;2023-08-24T15:59:03;97829.53;;;36.83;28.80
36242;BME280;22283;42.748;12.732;2023-08-24T16:04:04;97834.47;;;36.81;28.92
36242;BME280;22283;42.748;12.732;2023-08-24T16:09:05;97830.91;;;36.80;28.29
36242;BME280;22283;42.748;12.732;2023-08-24T16:14:06;97840.06;;;36.71;28.81
36242;BME280;22283;42.748;12.732;2023-08-24T16:19:06;97833.50;;;36.66;29.52
36242;BME280;22283;42.748;12.732;2023-08-24T16:24:07;97839.38;;;36.55;29.99
36242;BME280;22283;42.748;12.732;2023-08-24T16:29:10;97836.44;;;36.41;29.59
36242;BME280;22283;42.748;12.732;2023-08-24T16:34:10;97833.75;;;36.31;29.35
36242;BME280;22283;42.748;12.732;2023-08-24T16:39:11;97837.19;;;36.12;30.16
36242;BME280;22283;42.748;12.732;2023-08-24T16:44:12;97835.03;;;36.04;30.53
36242;BME280;22283;42.748;12.732;2023-08-24T16:49:13;97839.44;;;35.95;30.07
36242;BME280;22283;42.748;12.732;2023-08-24T16:54:13;97828.53;;;35.80;30.92
36242;BME280;22283;42.748;12.732;2023-08-24T16:59:14;97839.94;;;35.53;31.62
36242;BME280;22283;42.748;12.732;2023-08-24T17:04:15;97842.16;;;35.35;32.17
36242;BME280;22283;42.748;12.732;2023-08-24T17:09:15;97842.75;;;35.17;32.32
36242;BME280;22283;42.748;12.732;2023-08-24T17:14:16;97839.75;;;34.98;33.13
36242;BME280;22283;42.748;12.732;2023-08-24T17:19:17;97849.94;;;34.67;34.34
36242;BME280;22283;42.748;12.732;2023-08-24T17:24:17;97867.72;;;34.34;35.52
36242;BME280;22283;42.748;12.732;2023-08-24T17:29:18;97868.47;;;33.98;35.83
36242;BME280;22283;42.748;12.732;2023-08-24T17:34:19;97862.84;;;33.68;36.10
36242;BME280;22283;42.748;12.732;2023-08-24T17:39:19;97873.28;;;33.28;36.62
36242;BME280;22283;42.748;12.732;2023-08-24T17:44:20;97888.31;;;32.84;38.30
36242;BME280;22283;42.748;12.732;2023-08-24T17:49:22;97894.03;;;32.50;39.23
36242;BME280;22283;42.748;12.732;2023-08-24T17:54:22;97884.78;;;32.07;39.82
36242;BME280;22283;42.748;12.732;2023-08-24T17:59:23;97894.72;;;31.69;40.47
36242;BME280;22283;42.748;12.732;2023-08-24T18:04:24;97900.91;;;31.43;39.60
36242;BME280;22283;42.748;12.732;2023-08-24T18:09:24;97901.41;;;31.23;39.95
36242;BME280;22283;42.748;12.732;2023-08-24T18:14:26;97900.13;;;31.08;39.47
36242;BME280;22283;42.748;12.732;2023-08-24T18:19:27;97909.56;;;31.01;39.24
36242;BME280;22283;42.748;12.732;2023-08-24T18:24:28;97913.63;;;30.98;39.20
36242;BME280;22283;42.748;12.732;2023-08-24T18:29:28;97921.66;;;31.05;39.00
36242;BME280;22283;42.748;12.732;2023-08-24T18:34:29;97922.91;;;30.97;39.59
36242;BME280;22283;42.748;12.732;2023-08-24T18:39:30;97931.25;;;30.91;39.37
36242;BME280;22283;42.748;12.732;2023-08-24T18:44:30;97934.56;;;30.93;39.74
36242;BME280;22283;42.748;12.732;2023-08-24T18:49:31;97938.69;;;30.78;40.03
36242;BME280;22283;42.748;12.732;2023-08-24T18:54:32;97940.50;;;30.73;39.73
36242;BME280;22283;42.748;12.732;2023-08-24T18:59:32;97948.91;;;30.71;39.77
36242;BME280;22283;42.748;12.732;2023-08-24T19:04:34;97965.13;;;30.61;40.12
36242;BME280;22283;42.748;12.732;2023-08-24T19:09:36;97967.25;;;30.59;40.42
36242;BME280;22283;42.748;12.732;2023-08-24T19:14:39;97980.47;;;30.50;40.50
36242;BME280;22283;42.748;12.732;2023-08-24T19:19:40;97982.56;;;30.31;41.02
36242;BME280;22283;42.748;12.732;2023-08-24T19:24:41;97980.56;;;30.15;40.98
36242;BME280;22283;42.748;12.732;2023-08-24T19:29:42;97985.94;;;30.10;41.12
36242;BME280;22283;42.748;12.732;2023-08-24T19:34:42;97993.31;;;29.98;41.45
36242;BME280;22283;42.748;12.732;2023-08-24T19:39:43;97993.53;;;29.96;40.64
36242;BME280;22283;42.748;12.732;2023-08-24T19:44:44;97995.78;;;29.99;40.92
36242;BME280;22283;42.748;12.732;2023-08-24T19:49:45;98005.16;;;29.92;40.76
36242;BME280;22283;42.748;12.732;2023-08-24T19:54:45;98006.63;;;29.82;41.03
36242;BME280;22283;42.748;12.732;2023-08-24T19:59:46;97997.00;;;29.80;40.47
36242;BME280;22283;42.748;12.732;2023-08-24T20:04:46;98009.91;;;29.84;40.03
36242;BME280;22283;42.748;12.732;2023-08-24T20:09:48;98024.63;;;29.83;39.79
36242;BME280;22283;42.748;12.732;2023-08-24T20:14:49;98007.44;;;29.71;40.25
36242;BME280;22283;42.748;12.732;2023-08-24T20:19:50;98006.97;;;29.62;40.52
36242;BME280;22283;42.748;12.732;2023-08-24T20:24:51;98029.34;;;29.53;40.73
36242;BME280;22283;42.748;12.732;2023-08-24T20:29:51;98018.66;;;29.39;40.67
36242;BME280;22283;42.748;12.732;2023-08-24T20:34:52;98035.38;;;29.31;40.49
36242;BME280;22283;42.748;12.732;2023-08-24T20:39:53;98030.72;;;29.20;40.31
36242;BME280;22283;42.748;12.732;2023-08-24T20:44:54;98034.97;;;29.16;40.12
36242;BME280;22283;42.748;12.732;2023-08-24T20:49:54;98031.06;;;29.12;39.78
36242;BME280;22283;42.748;12.732;2023-08-24T20:54:56;98039.34;;;29.05;40.51
36242;BME280;22283;42.748;12.732;2023-08-24T20:59:57;98040.22;;;28.87;40.85
36242;BME280;22283;42.748;12.732;2023-08-24T21:04:57;98050.69;;;28.72;41.15
36242;BME280;22283;42.748;12.732;2023-08-24T21:09:58;98056.00;;;28.67;41.25
36242;BME280;22283;42.748;12.732;2023-08-24T21:14:59;98067.09;;;28.65;41.30
36242;BME280;22283;42.748;12.732;2023-08-24T21:20:00;98060.53;;;28.55;41.78
36242;BME280;22283;42.748;12.732;2023-08-24T21:25:01;98067.88;;;28.36;42.09
36242;BME280;22283;42.748;12.732;2023-08-24T21:30:03;98063.78;;;27.40;45.70
36242;BME280;22283;42.748;12.732;2023-08-24T21:35:04;98064.09;;;26.93;45.86
36242;BME280;22283;42.748;12.732;2023-08-24T21:40:06;98047.91;;;27.12;45.40
36242;BME280;22283;42.748;12.732;2023-08-24T21:45:07;98049.91;;;27.23;45.52
36242;BME280;22283;42.748;12.732;2023-08-24T21:50:08;98049.91;;;27.23;45.54
36242;BME280;22283;42.748;12.732;2023-08-24T21:55:09;98045.63;;;27.09;45.92
36242;BME280;22283;42.748;12.732;2023-08-24T22:00:10;98046.06;;;27.06;45.92
36242;BME280;22283;42.748;12.732;2023-08-24T22:05:13;98060.94;;;26.96;46.08
36242;BME280;22283;42.748;12.732;2023-08-24T22:10:14;98059.88;;;26.97;46.31
36242;BME280;22283;42.748;12.732;2023-08-24T22:15:15;98056.16;;;26.92;46.47
36242;BME280;22283;42.748;12.732;2023-08-24T22:20:16;98052.41;;;26.93;46.50
36242;BME280;22283;42.748;12.732;2023-08-24T22:25:19;98009.94;;;26.73;46.57
36242;BME280;22283;42.748;12.732;2023-08-24T22:30:20;98040.66;;;26.99;46.29
36242;BME280;22283;42.748;12.732;2023-08-24T22:35:21;98035.38;;;27.11;46.06
36242;BME280;22283;42.748;12.732;2023-08-24T22:40:22;98033.16;;;27.51;44.93
36242;BME280;22283;42.748;12.732;2023-08-24T22:45:23;98042.13;;;27.33;45.39
36242;BME280;22283;42.748;12.732;2023-08-24T22:50:26;98035.91;;;27.26;45.92
36242;BME280;22283;42.748;12.732;2023-08-24T22:55:27;98036.50;;;26.96;46.87
36242;BME280;22283;42.748;12.732;2023-08-24T23:00:27;98045.00;;;26.75;47.24
36242;BME280;22283;42.748;12.732;2023-08-24T23:05:28;98054.50;;;26.53;47.79
36242;BME280;22283;42.748;12.732;2023-08-24T23:10:29;98043.06;;;26.37;52.31
36242;BME280;22283;42.748;12.732;2023-08-24T23:15:29;98064.16;;;26.29;51.39
36242;BME280;22283;42.748;12.732;2023-08-24T23:20:30;98045.47;;;26.14;49.56
36242;BME280;22283;42.748;12.732;2023-08-24T23:25:30;98048.16;;;26.14;49.94
36242;BME280;22283;42.748;12.732;2023-08-24T23:30:31;98057.97;;;26.08;50.05
36242;BME280;22283;42.748;12.732;2023-08-24T23:35:32;98054.06;;;25.84;50.97
36242;BME280;22283;42.748;12.732;2023-08-24T23:40:34;98054.91;;;25.71;51.23
36242;BME280;22283;42.748;12.732;2023-08-24T23:45:36;98050.13;;;25.67;51.48
36242;BME280;22283;42.748;12.732;2023-08-24T23:50:37;98053.66;;;25.61;51.42
36242;BME280;22283;42.748;12.732;2023-08-24T23:55:37;98052.22;;;25.45;51.86
